Time;durP1;ratioP1;P1;durP2;ratioP2;P2;SDS_P1;SDS_P2;PMS_P1;PMS_P2;Temp;Humidity;BMP_temperature;BMP_pressure;BME280_temperature;BME280_humidity;BME280_pressure;Samples;Min_cycle;Max_cycle;Signal;HPM_P1;HPM_P2
2022/04/02 00:00:18;;;;;;;1.15;0.50;;;;;;;16.79;40.43;98966.75;4936924;29;20031;-93
2022/04/02 00:02:47;;;;;;;1.88;0.60;;;;;;;16.76;40.27;98962.47;4936974;29;20031;-91
2022/04/02 00:05:12;;;;;;;1.88;0.70;;;;;;;16.78;40.32;98970.31;4953521;29;20031;-91
2022/04/02 00:07:38;;;;;;;1.35;0.50;;;;;;;16.78;40.59;98965.03;4970106;29;20109;-91
2022/04/02 00:10:07;;;;;;;2.13;0.70;;;;;;;16.78;40.30;98975.59;4937811;29;20043;-91
2022/04/02 00:12:39;;;;;;;1.13;0.50;;;;;;;16.79;40.42;98972.00;4971047;29;20075;-91
2022/04/02 00:15:05;;;;;;;1.20;0.50;;;;;;;16.79;40.25;98974.66;4954064;29;20031;-91
2022/04/02 00:17:33;;;;;;;1.85;0.50;;;;;;;16.77;40.53;98968.63;4971329;29;20078;-91
2022/04/02 00:20:00;;;;;;;1.83;0.63;;;;;;;16.77;40.34;98973.88;4969794;29;20114;-91
2022/04/02 00:22:26;;;;;;;1.42;0.52;;;;;;;16.79;40.42;98982.56;4948903;29;20047;-90
2022/04/02 00:24:51;;;;;;;1.27;0.50;;;;;;;16.79;40.19;98993.09;4953157;29;20042;-91
2022/04/02 00:27:17;;;;;;;0.40;0.38;;;;;;;16.77;40.43;98979.16;4949739;29;20023;-91
2022/04/02 00:29:43;;;;;;;1.13;0.52;;;;;;;16.76;40.10;98986.19;4948959;29;20059;-91
2022/04/02 00:32:08;;;;;;;0.50;0.40;;;;;;;16.78;40.17;98991.41;4948054;29;20030;-90
2022/04/02 00:34:34;;;;;;;1.58;0.43;;;;;;;16.77;40.10;98984.44;4947991;29;20035;-90
2022/04/02 00:37:00;;;;;;;1.30;0.68;;;;;;;16.76;40.17;98983.56;4963529;29;20023;-91
2022/04/02 00:39:25;;;;;;;0.40;0.38;;;;;;;16.75;40.25;98975.72;4946196;29;20027;-91
2022/04/02 00:41:51;;;;;;;1.02;0.52;;;;;;;16.73;40.27;98981.09;4947688;29;20019;-91
2022/04/02 00:44:17;;;;;;;0.98;0.75;;;;;;;16.72;40.19;98974.13;4950537;29;20054;-91
2022/04/02 00:46:44;;;;;;;0.90;0.40;;;;;;;16.73;40.13;98983.72;4950797;29;20073;-91
2022/04/02 00:49:11;;;;;;;0.88;0.40;;;;;;;16.73;40.09;98978.47;4935005;29;20440;-91
2022/04/02 00:51:41;;;;;;;1.00;0.50;;;;;;;16.73;40.09;98965.28;4948630;29;20022;-91
2022/04/02 00:54:17;;;;;;;1.50;0.50;;;;;;;16.72;40.14;98966.22;4946386;29;20031;-91
2022/04/02 00:56:43;;;;;;;0.80;0.40;;;;;;;16.71;40.08;98961.88;4948881;29;20097;-91
2022/04/02 00:59:10;;;;;;;1.02;0.50;;;;;;;16.70;40.31;98962.78;4945332;29;20036;-92
2022/04/02 01:01:37;;;;;;;0.98;0.40;;;;;;;16.68;40.36;98958.53;4945395;29;20038;-90
2022/04/02 01:04:04;;;;;;;0.88;0.50;;;;;;;16.69;40.38;98960.22;4963378;29;20023;-91
2022/04/02 01:06:31;;;;;;;1.02;0.50;;;;;;;16.68;40.24;98964.66;4947807;29;20358;-91
2022/04/02 01:08:57;;;;;;;1.92;0.60;;;;;;;16.66;40.29;98969.16;4947989;29;20023;-91
2022/04/02 01:11:23;;;;;;;0.50;0.40;;;;;;;16.68;40.25;98963.81;4949608;29;20028;-91
2022/04/02 01:13:49;;;;;;;1.90;0.50;;;;;;;16.67;40.40;98973.50;4950020;29;20038;-91
2022/04/02 01:16:14;;;;;;;0.70;0.40;;;;;;;16.67;40.08;98970.00;4950757;29;20470;-91
2022/04/02 01:18:40;;;;;;;1.42;0.57;;;;;;;16.66;40.30;98976.22;4950444;29;20174;-91
2022/04/02 01:21:06;;;;;;;2.30;0.50;;;;;;;16.66;40.50;98971.78;4950942;29;20023;-91
2022/04/02 01:23:33;;;;;;;1.08;0.43;;;;;;;16.67;40.38;98970.00;4953682;29;20037;-91
2022/04/02 01:26:02;;;;;;;1.58;0.52;;;;;;;16.66;40.35;98977.03;4959986;29;20103;-91
2022/04/02 01:28:36;;;;;;;1.35;0.40;;;;;;;16.66;40.40;98970.94;4963798;29;20011;-92
2022/04/02 01:31:10;;;;;;;0.55;0.40;;;;;;;16.64;40.50;98977.16;4980042;29;20019;-92
2022/04/02 01:33:36;;;;;;;1.45;0.50;;;;;;;16.66;40.51;98969.16;4964117;29;20027;-92
2022/04/02 01:36:06;;;;;;;0.55;0.38;;;;;;;16.67;40.32;98962.09;4981087;29;20015;-92
2022/04/02 01:38:31;;;;;;;1.15;0.60;;;;;;;16.66;40.59;98963.03;4961340;29;20038;-91
2022/04/02 01:40:57;;;;;;;1.02;0.40;;;;;;;16.66;40.45;98965.69;4961990;29;20027;-92
2022/04/02 01:43:27;;;;;;;1.40;0.57;;;;;;;16.66;40.89;98963.03;4961700;29;20046;-92
2022/04/02 01:45:58;;;;;;;1.30;0.47;;;;;;;16.66;40.67;98965.69;4910586;29;1980407;-92
2022/04/02 01:48:45;;;;;;;0.60;0.30;;;;;;;16.68;40.35;98958.53;4953627;29;20088;-92
2022/04/02 01:51:11;;;;;;;0.88;0.30;;;;;;;16.68;40.44;98964.66;4938167;29;20198;-92
2022/04/02 01:54:09;;;;;;;1.00;0.50;;;;;;;16.67;40.47;98962.09;4954723;29;20034;-92
2022/04/02 02:23:36;;;;;;;1.52;0.47;;;;;;;16.66;40.37;98974.41;4968994;29;20063;-92
2022/04/02 02:26:03;;;;;;;0.77;0.40;;;;;;;16.63;40.46;98970.19;4951305;29;20027;-93
2022/04/02 02:28:28;;;;;;;0.80;0.30;;;;;;;16.64;40.41;98973.66;4950372;29;20040;-93
2022/04/02 02:30:58;;;;;;;0.85;0.40;;;;;;;16.64;40.48;98976.28;4949309;29;20031;-93
2022/04/02 02:36:27;;;;;;;0.95;0.35;;;;;;;16.63;40.54;98988.63;4906598;29;20029;-93
2022/04/02 02:38:56;;;;;;;1.40;0.52;;;;;;;16.63;40.54;98993.88;4941913;29;20070;-93
2022/04/02 02:41:22;;;;;;;0.98;0.35;;;;;;;16.62;40.62;98986.88;4949414;29;20034;-93
2022/04/02 02:43:47;;;;;;;1.90;0.60;;;;;;;16.63;40.41;98993.88;4950198;29;20062;-93
2022/04/02 02:46:14;;;;;;;0.50;0.40;;;;;;;16.63;40.32;98988.63;4949721;29;20055;-93
2022/04/02 02:48:44;;;;;;;1.02;0.40;;;;;;;16.63;40.19;99004.44;4949576;29;20114;-93
2022/04/02 02:51:10;;;;;;;1.35;0.60;;;;;;;16.61;40.64;98998.34;4949946;29;20350;-92
2022/04/02 02:53:37;;;;;;;1.65;0.47;;;;;;;16.63;40.48;98999.16;4951023;29;20045;-92
2022/04/02 02:56:04;;;;;;;1.00;0.50;;;;;;;16.63;40.39;98999.16;4950409;29;20031;-92
2022/04/02 02:58:30;;;;;;;1.48;0.50;;;;;;;16.63;40.53;99008.84;4951332;29;20034;-92
2022/04/02 03:00:56;;;;;;;0.80;0.40;;;;;;;16.63;40.54;99011.47;4950979;29;20026;-92
2022/04/02 03:03:23;;;;;;;0.60;0.38;;;;;;;16.62;40.37;99010.59;4953533;29;20039;-91
2022/04/02 03:05:49;;;;;;;1.35;0.57;;;;;;;16.63;40.40;99007.06;4954008;29;20035;-93
2022/04/02 03:08:17;;;;;;;0.60;0.40;;;;;;;16.63;40.43;99004.44;4971070;29;20027;-92
2022/04/02 03:10:48;;;;;;;0.85;0.40;;;;;;;16.62;40.60;99007.97;4954080;29;20039;-93
2022/04/02 03:13:21;;;;;;;1.13;0.50;;;;;;;16.61;40.40;99011.53;4955250;29;20404;-92
2022/04/02 03:15:47;;;;;;;0.90;0.47;;;;;;;16.63;40.63;99008.84;4953084;29;20050;-92
2022/04/02 03:18:18;;;;;;;0.45;0.30;;;;;;;16.62;40.67;99013.22;4938614;29;20046;-92
2022/04/02 03:34:15;;;;;;;2.30;0.55;;;;;;;16.65;40.66;99009.59;4969941;29;20054;-91
2022/04/02 03:36:47;;;;;;;0.93;0.50;;;;;;;16.63;40.48;99008.84;4937350;29;20046;-91
2022/04/02 03:39:17;;;;;;;1.00;0.50;;;;;;;16.64;40.59;99011.41;4937114;29;20035;-92
2022/04/02 03:41:44;;;;;;;1.95;0.70;;;;;;;16.63;40.62;99016.72;4971328;29;20045;-92
2022/04/02 03:44:19;;;;;;;2.10;0.70;;;;;;;16.63;40.60;99020.22;4955867;29;20537;-92
2022/04/02 03:49:30;;;;;;;1.60;0.50;;;;;;;16.62;40.81;99018.50;4974392;29;20046;-92
2022/04/02 03:52:00;;;;;;;1.05;0.50;;;;;;;16.62;40.41;99021.13;4958597;29;20071;-91
2022/04/02 03:54:25;;;;;;;1.50;0.52;;;;;;;16.64;40.64;99027.19;4955435;29;20038;-92
2022/04/02 03:56:51;;;;;;;2.42;0.77;;;;;;;16.63;40.50;99041.31;4938727;29;20372;-92
2022/04/02 03:59:17;;;;;;;0.88;0.28;;;;;;;16.63;40.37;99043.94;4957310;29;20030;-92
2022/04/02 04:01:43;;;;;;;0.70;0.40;;;;;;;16.62;40.44;99039.56;4955516;29;20034;-91
2022/04/02 04:04:08;;;;;;;1.10;0.40;;;;;;;16.63;40.50;99041.31;4944545;29;20035;-91
2022/04/02 04:06:34;;;;;;;2.08;0.57;;;;;;;16.64;40.59;99037.75;4978017;29;20027;-91
2022/04/02 04:09:04;;;;;;;1.17;0.57;;;;;;;16.64;40.46;99039.50;4978931;29;20047;-91
2022/04/02 04:11:30;;;;;;;0.77;0.43;;;;;;;16.63;40.58;99036.03;4961152;29;20031;-92
2022/04/02 04:14:08;;;;;;;0.98;0.43;;;;;;;16.64;40.38;99053.53;4960579;29;20099;-92
2022/04/02 04:16:34;;;;;;;1.48;0.40;;;;;;;16.64;40.51;99048.28;4940297;29;20043;-90
2022/04/02 04:18:59;;;;;;;1.17;0.40;;;;;;;16.64;40.33;99053.53;4946723;29;20023;-91
2022/04/02 04:21:25;;;;;;;0.93;0.50;;;;;;;16.64;40.50;99052.69;4946894;29;20464;-91
2022/04/02 04:23:51;;;;;;;0.93;0.47;;;;;;;16.63;40.48;99051.84;4951647;29;20062;-91
2022/04/02 04:26:17;;;;;;;1.25;0.60;;;;;;;16.63;40.56;99050.97;4964146;29;20338;-90
2022/04/02 04:28:43;;;;;;;1.27;0.52;;;;;;;16.64;40.40;99053.53;4947692;29;20488;-91
2022/04/02 04:31:09;;;;;;;1.77;0.60;;;;;;;16.63;40.39;99062.38;4947744;29;20027;-90
2022/04/02 04:33:35;;;;;;;2.75;0.60;;;;;;;16.65;40.52;99059.66;4947146;29;20117;-91
2022/04/02 04:36:13;;;;;;;1.05;0.50;;;;;;;16.62;40.27;99058.00;4948647;29;20027;-91
2022/04/02 04:38:39;;;;;;;1.67;0.50;;;;;;;16.63;40.40;99062.38;4951489;29;20079;-91
2022/04/02 04:41:05;;;;;;;1.00;0.50;;;;;;;16.62;40.49;99065.91;4953004;29;20043;-91
2022/04/02 04:43:35;;;;;;;1.20;0.55;;;;;;;16.63;40.75;99061.50;4953124;29;20026;-91
2022/04/02 04:46:06;;;;;;;0.95;0.60;;;;;;;16.63;40.52;99059.75;4955986;29;20055;-91
2022/04/02 04:48:31;;;;;;;1.35;0.60;;;;;;;16.63;40.46;99069.41;4925340;29;20039;-91
2022/04/02 04:51:10;;;;;;;1.95;0.60;;;;;;;16.62;40.42;99062.44;4955697;29;20031;-92
2022/04/02 04:53:46;;;;;;;1.50;0.75;;;;;;;16.64;40.55;99074.63;4955626;29;20122;-93
2022/04/02 04:56:15;;;;;;;;;;;;;;;16.67;40.60;99078.03;4972063;29;20042;-92
2022/04/02 04:58:40;;;;;;;1.73;0.60;;;;;;;16.66;40.32;99068.41;4954387;29;19910;-91
2022/04/02 05:01:08;;;;;;;1.38;0.55;;;;;;;16.66;40.52;99076.31;4974108;29;20035;-91
2022/04/02 05:03:41;;;;;;;0.93;0.50;;;;;;;16.66;40.30;99081.59;4941126;29;20031;-91
2022/04/02 05:06:12;;;;;;;1.42;0.50;;;;;;;16.63;40.38;99086.09;4972104;29;20038;-92
2022/04/02 05:08:38;;;;;;;0.45;0.32;;;;;;;16.63;40.26;99083.47;4972111;29;20039;-90
2022/04/02 05:11:14;;;;;;;1.58;0.68;;;;;;;16.64;40.27;99090.44;4954731;29;20063;-91
2022/04/02 05:13:41;;;;;;;1.85;0.60;;;;;;;16.64;40.14;99100.97;4972717;29;20066;-91
2022/04/02 05:16:19;;;;;;;2.47;0.60;;;;;;;16.65;40.43;99101.78;4958969;29;20046;-92
2022/04/02 05:18:46;;;;;;;1.65;0.65;;;;;;;16.63;40.34;99109.81;4969561;29;20031;-93
2022/04/02 05:21:11;;;;;;;2.88;0.70;;;;;;;16.63;40.23;99119.47;4940969;29;20039;-91
2022/04/02 05:23:37;;;;;;;2.08;0.80;;;;;;;16.63;40.33;99120.34;4954939;29;20094;-91
2022/04/02 05:26:08;;;;;;;1.23;0.60;;;;;;;16.64;40.30;99116.78;4956485;29;20027;-92
2022/04/02 05:28:37;;;;;;;2.30;0.73;;;;;;;16.64;40.36;99127.31;4973463;29;20039;-90
2022/04/02 05:31:04;;;;;;;1.33;0.70;;;;;;;16.62;40.26;99129.13;4954610;29;20055;-92
2022/04/02 05:33:30;;;;;;;1.73;0.50;;;;;;;16.62;40.04;99131.78;4938841;29;20181;-92
2022/04/02 05:36:00;;;;;;;1.38;0.60;;;;;;;16.62;40.26;99134.41;4939133;29;20465;-92
2022/04/02 05:38:31;;;;;;;2.15;0.60;;;;;;;16.61;40.41;99143.25;4959692;29;20035;-92
2022/04/02 05:40:57;;;;;;;1.77;0.70;;;;;;;16.61;40.52;99143.25;4961152;29;20031;-92
2022/04/02 05:43:23;;;;;;;2.20;0.75;;;;;;;16.62;40.38;99150.22;4976461;29;20031;-93
2022/04/02 05:45:50;;;;;;;1.30;0.52;;;;;;;16.60;40.39;99152.09;4979493;29;20046;-92
2022/04/02 05:48:20;;;;;;;1.58;0.52;;;;;;;16.61;40.43;99161.69;4961401;29;20505;-91
2022/04/02 05:50:49;;;;;;;1.88;0.70;;;;;;;16.61;40.19;99168.75;4974505;29;20038;-91
2022/04/02 05:53:15;;;;;;;1.35;0.60;;;;;;;16.61;40.59;99163.47;4957365;29;20536;-90
2022/04/02 05:55:42;;;;;;;1.20;0.77;;;;;;;16.60;40.43;99175.78;4952517;29;20062;-91
2022/04/02 05:58:10;;;;;;;1.27;0.80;;;;;;;16.61;40.49;99180.13;4951622;29;20466;-91
2022/04/02 06:00:36;;;;;;;1.90;0.88;;;;;;;16.61;40.53;99184.56;4953416;29;20027;-92
2022/04/02 06:03:03;;;;;;;1.30;0.60;;;;;;;16.62;40.55;99184.47;4954321;29;20031;-91
2022/04/02 06:05:32;;;;;;;1.48;0.60;;;;;;;16.61;40.64;99195.09;4951759;29;20045;-92
2022/04/02 06:08:02;;;;;;;1.88;0.65;;;;;;;16.60;40.48;99199.50;4921265;29;20483;-92
2022/04/02 06:10:28;;;;;;;1.33;0.60;;;;;;;16.61;40.50;99201.19;4952846;29;20102;-91
2022/04/02 06:12:54;;;;;;;3.33;0.77;;;;;;;16.60;40.50;99207.41;4970672;29;20373;-91
2022/04/02 06:15:21;;;;;;;2.13;0.70;;;;;;;16.61;40.60;99211.75;4971083;29;20030;-91
2022/04/02 06:17:47;;;;;;;1.58;0.70;;;;;;;16.62;40.63;99213.44;4970146;29;20031;-91
2022/04/02 06:20:14;;;;;;;0.95;0.60;;;;;;;16.62;40.47;99210.81;4956197;29;20027;-92
2022/04/02 06:22:41;;;;;;;1.45;0.60;;;;;;;16.62;40.41;99212.59;4959283;29;20031;-92
2022/04/02 06:25:12;;;;;;;1.70;0.60;;;;;;;16.62;40.49;99213.44;4944898;29;20070;-92
2022/04/02 06:27:47;;;;;;;1.65;0.73;;;;;;;16.62;40.60;99216.06;4977484;29;20115;-91
2022/04/02 06:30:23;;;;;;;1.90;0.70;;;;;;;16.62;40.58;99234.53;4945231;29;20027;-92
2022/04/02 06:32:49;;;;;;;1.45;0.70;;;;;;;16.61;40.41;99238.09;4962678;29;20433;-92
2022/04/02 06:35:15;;;;;;;1.48;0.52;;;;;;;16.63;40.40;99241.53;4956983;29;20038;-91
2022/04/02 06:37:41;;;;;;;1.83;0.75;;;;;;;16.62;40.49;99244.22;4954006;29;20062;-92
2022/04/02 06:40:09;;;;;;;0.95;0.50;;;;;;;16.63;40.53;99253.81;4930262;29;20047;-89
2022/04/02 06:42:36;;;;;;;1.30;0.60;;;;;;;16.61;40.48;99251.25;4946376;29;20019;-90
2022/04/02 06:45:03;;;;;;;2.28;0.65;;;;;;;16.62;40.54;99258.22;4947727;29;20031;-91
2022/04/02 06:47:31;;;;;;;2.38;0.75;;;;;;;16.62;40.45;99255.59;4944792;29;20105;-89
2022/04/02 06:49:57;;;;;;;2.35;0.68;;;;;;;16.61;40.53;99267.06;4941531;29;20019;-90
2022/04/02 06:52:23;;;;;;;2.08;0.60;;;;;;;16.63;40.48;99267.00;4941283;29;20061;-88
2022/04/02 06:54:49;;;;;;;1.05;0.60;;;;;;;16.61;40.43;99274.97;4941563;29;20055;-89
2022/04/02 06:57:19;;;;;;;1.90;0.80;;;;;;;16.62;40.45;99287.22;4944020;29;20062;-91
2022/04/02 06:59:44;;;;;;;1.63;0.77;;;;;;;16.62;40.55;99291.63;4952055;29;20027;-91
2022/04/02 07:02:10;;;;;;;1.65;0.50;;;;;;;16.61;40.64;99284.66;4950246;29;20030;-90
2022/04/02 07:04:36;;;;;;;2.00;0.70;;;;;;;16.61;40.50;99285.50;4945401;29;20397;-90
2022/04/02 07:07:01;;;;;;;1.27;0.60;;;;;;;16.62;40.65;99295.09;4944931;29;20174;-91
2022/04/02 07:09:27;;;;;;;1.83;0.70;;;;;;;16.62;40.51;99297.75;4959317;29;20178;-89
2022/04/02 07:11:53;;;;;;;1.85;0.55;;;;;;;16.62;40.80;99303.00;4940881;29;20461;-88
2022/04/02 07:14:18;;;;;;;2.15;0.73;;;;;;;16.62;40.45;99308.28;4941647;29;20038;-89
2022/04/02 07:16:44;;;;;;;1.98;0.88;;;;;;;16.62;40.53;99308.28;4941220;29;20027;-88
2022/04/02 07:19:10;;;;;;;1.48;0.70;;;;;;;16.62;40.53;99308.28;4938782;29;20094;-89
2022/04/02 07:21:36;;;;;;;2.55;0.80;;;;;;;16.63;40.65;99323.19;4940477;29;20026;-87
2022/04/02 07:24:02;;;;;;;2.10;0.82;;;;;;;16.63;40.62;99317.06;4957069;29;20034;-87
2022/04/02 07:26:30;;;;;;;2.67;0.73;;;;;;;16.63;40.55;99325.81;4957178;29;20037;-89
2022/04/02 07:28:57;;;;;;;1.65;0.90;;;;;;;16.66;40.74;99334.50;4941697;29;20033;-88
2022/04/02 07:31:23;;;;;;;2.45;0.90;;;;;;;16.63;40.65;99333.72;4940561;29;20027;-89
2022/04/02 07:33:49;;;;;;;2.30;0.90;;;;;;;16.64;40.45;99340.69;4941323;29;20038;-90
2022/04/02 07:36:57;;;;;;;1.50;0.70;;;;;;;16.66;40.63;99337.13;4940835;29;20031;-85
2022/04/02 07:39:54;;;;;;;1.55;0.60;;;;;;;16.64;40.78;99348.59;4940633;29;20054;-87
2022/04/02 07:42:32;;;;;;;1.38;0.65;;;;;;;16.66;40.50;99358.22;4929200;29;20032;-89
2022/04/02 07:45:07;;;;;;;2.70;0.80;;;;;;;16.67;40.45;99367.81;4941992;29;20106;-87
2022/04/02 07:47:35;;;;;;;1.70;0.70;;;;;;;16.66;40.66;99368.75;4921267;29;20040;-88
2022/04/02 07:50:09;;;;;;;2.00;0.85;;;;;;;16.65;40.61;99373.16;4921984;29;20036;-90
2022/04/02 07:52:39;;;;;;;2.95;0.90;;;;;;;16.67;40.64;99373.09;4933141;29;20473;-87
2022/04/02 07:55:08;;;;;;;3.15;0.70;;;;;;;16.64;40.43;99372.31;4941062;29;20488;-88
2022/04/02 07:57:41;;;;;;;2.10;0.70;;;;;;;16.65;40.61;99386.31;4940110;29;20472;-89
2022/04/02 08:00:12;;;;;;;2.33;0.80;;;;;;;16.64;40.73;99400.44;4954002;29;20429;-87
2022/04/02 08:02:43;;;;;;;3.40;1.02;;;;;;;16.63;40.51;99396.97;4946928;29;20039;-87
2022/04/02 08:05:14;;;;;;;1.75;0.82;;;;;;;16.63;40.76;99404.84;4940948;29;20034;-88
2022/04/02 08:07:44;;;;;;;1.90;0.80;;;;;;;16.64;40.62;99401.31;4941105;29;20034;-86
2022/04/02 08:10:12;;;;;;;1.25;0.63;;;;;;;16.63;40.72;99401.34;4940729;29;20028;-86
2022/04/02 08:12:39;;;;;;;1.60;0.65;;;;;;;16.63;40.55;99414.53;4940886;29;20118;-87
2022/04/02 08:15:09;;;;;;;2.47;0.90;;;;;;;16.62;40.58;99418.94;4940891;29;20062;-87
2022/04/02 08:17:40;;;;;;;1.48;0.80;;;;;;;16.61;40.53;99421.66;4939839;29;20170;-87
2022/04/02 08:20:07;;;;;;;2.38;0.80;;;;;;;16.63;40.64;99425.94;4941398;29;20031;-88
2022/04/02 08:22:32;;;;;;;2.28;0.90;;;;;;;16.63;40.73;99425.06;4940796;29;20030;-88
2022/04/02 08:24:58;;;;;;;1.60;0.63;;;;;;;16.61;40.52;99433.03;4940254;29;20027;-88
2022/04/02 08:27:42;;;;;;;1.88;0.60;;;;;;;16.61;40.63;99432.19;4940351;29;20531;-87
2022/04/02 08:30:17;;;;;;;1.58;0.73;;;;;;;16.63;40.54;99435.59;4940475;29;20031;-88
2022/04/02 08:32:52;;;;;;;2.25;0.70;;;;;;;16.61;40.68;99451.47;4959493;29;20481;-90
2022/04/02 08:35:25;;;;;;;2.17;1.10;;;;;;;16.62;40.55;99440.00;4941524;29;20023;-88
2022/04/02 08:38:17;;;;;;;2.85;0.80;;;;;;;16.63;40.57;99449.66;4942230;29;20506;-89
2022/04/02 08:41:11;;;;;;;1.90;0.80;;;;;;;16.65;40.72;99444.28;4923521;29;20118;-89
2022/04/02 08:43:46;;;;;;;1.50;0.80;;;;;;;16.63;40.60;99452.28;4941444;29;20472;-90
2022/04/02 08:46:30;;;;;;;2.10;0.98;;;;;;;16.65;40.58;99460.09;4942710;29;20058;-89
2022/04/02 08:49:08;;;;;;;1.90;0.80;;;;;;;16.64;40.40;99454.00;4941871;29;20034;-89
2022/04/02 08:51:45;;;;;;;3.47;1.10;;;;;;;16.67;40.54;99462.66;4940545;29;20073;-91
2022/04/02 08:54:38;;;;;;;2.40;0.85;;;;;;;16.68;40.71;99459.13;4942145;29;20513;-89
2022/04/02 08:57:28;;;;;;;3.67;0.90;;;;;;;16.64;41.13;99464.53;4943155;29;20129;-89
2022/04/02 09:00:15;;;;;;;5.22;1.10;;;;;;;16.68;41.54;99464.38;4956605;29;20035;-89
2022/04/02 09:03:02;;;;;;;4.53;1.27;;;;;;;16.68;41.53;99459.13;4954609;29;20027;-88
2022/04/02 09:05:46;;;;;;;4.55;1.10;;;;;;;16.67;41.68;99460.03;4963883;29;20154;-89
2022/04/02 09:08:38;;;;;;;3.65;1.58;;;;;;;16.66;41.34;99460.97;4961687;29;20059;-89
2022/04/02 09:11:09;;;;;;;4.70;1.02;;;;;;;16.67;41.72;99462.66;4948424;29;20037;-89
2022/04/02 09:13:49;;;;;;;3.58;1.10;;;;;;;16.69;41.28;99464.31;4962591;29;20114;-88
2022/04/02 09:16:41;;;;;;;3.83;1.20;;;;;;;16.70;41.22;99470.47;4948016;29;20043;-88
2022/04/02 09:19:28;;;;;;;4.18;1.20;;;;;;;16.71;41.23;99469.53;4923642;29;20473;-89
2022/04/02 09:22:28;;;;;;;4.63;1.00;;;;;;;16.68;41.26;99465.25;4923853;29;20090;-88
2022/04/02 09:24:56;;;;;;;2.05;0.80;;;;;;;16.69;41.29;99461.69;4927419;29;20067;-88
2022/04/02 09:27:28;;;;;;;2.45;0.80;;;;;;;16.71;41.26;99459.00;4939053;29;20496;-88
2022/04/02 09:30:26;;;;;;;2.65;1.00;;;;;;;16.71;41.14;99464.25;4940560;29;20027;-88
2022/04/02 09:33:19;;;;;;;3.33;1.10;;;;;;;16.70;41.18;99449.38;4943200;29;20394;-87
2022/04/02 09:36:04;;;;;;;4.68;1.40;;;;;;;16.72;41.01;99465.97;4942905;29;20031;-89
2022/04/02 09:39:02;;;;;;;3.72;1.25;;;;;;;16.70;41.21;99452.00;4934434;29;20027;-89
2022/04/02 09:41:46;;;;;;;3.33;1.27;;;;;;;16.70;41.14;99458.13;4923590;29;20036;-88
2022/04/02 09:44:29;;;;;;;4.13;1.50;;;;;;;16.69;40.90;99460.81;4923292;29;20501;-88
2022/04/02 09:47:04;;;;;;;4.68;1.40;;;;;;;16.70;40.91;99458.13;4929552;29;20507;-88
2022/04/02 09:49:32;;;;;;;3.05;1.17;;;;;;;16.69;41.05;99458.19;4959483;29;20031;-88
2022/04/02 09:52:04;;;;;;;2.55;1.27;;;;;;;16.69;40.79;99468.72;4942376;29;20039;-88
2022/04/02 09:54:44;;;;;;;2.88;1.25;;;;;;;16.69;40.91;99468.72;4926315;29;20461;-89
2022/04/02 09:57:38;;;;;;;4.57;1.35;;;;;;;16.68;40.97;99469.66;4942528;29;20031;-89
2022/04/02 10:00:08;;;;;;;3.00;1.05;;;;;;;16.68;40.72;99473.16;4900955;29;20094;-88
2022/04/02 10:03:06;;;;;;;4.18;1.25;;;;;;;16.68;40.65;99469.66;4936752;29;20023;-87
2022/04/02 10:06:11;;;;;;;3.03;1.33;;;;;;;16.69;40.92;99471.34;4959463;29;20039;-88
2022/04/02 10:08:45;;;;;;;3.28;1.15;;;;;;;16.68;40.93;99453.84;4938936;29;20038;-89
2022/04/02 10:11:15;;;;;;;3.47;1.20;;;;;;;16.70;40.85;99458.13;4942113;29;20038;-89
2022/04/02 10:13:41;;;;;;;2.70;1.30;;;;;;;16.71;40.64;99470.38;4941737;29;20178;-88
2022/04/02 10:16:11;;;;;;;4.80;1.50;;;;;;;16.69;40.85;99460.81;4941748;29;20058;-88
2022/04/02 10:18:38;;;;;;;4.07;1.40;;;;;;;16.69;40.64;99471.34;4941652;29;20031;-89
2022/04/02 10:21:07;;;;;;;3.22;1.38;;;;;;;16.69;40.64;99463.44;4942062;29;20181;-88
2022/04/02 10:23:51;;;;;;;3.58;1.42;;;;;;;16.69;40.66;99466.09;4941567;29;20062;-88
2022/04/02 10:26:18;;;;;;;6.15;1.42;;;;;;;16.71;40.67;99466.91;4941552;29;20465;-88
2022/04/02 10:28:58;;;;;;;3.08;1.48;;;;;;;16.70;40.71;99458.13;4922545;29;20039;-88
2022/04/02 10:31:58;;;;;;;3.83;1.55;;;;;;;16.72;40.58;99465.97;4934542;29;20051;-87
2022/04/02 10:34:38;;;;;;;3.63;1.50;;;;;;;16.71;40.49;99454.56;4938113;29;20036;-88
2022/04/02 10:37:16;;;;;;;4.53;1.50;;;;;;;16.72;40.28;99453.66;4922542;29;20035;-90
2022/04/02 10:40:00;;;;;;;3.47;1.48;;;;;;;16.72;40.52;99456.31;4931236;29;20531;-89
2022/04/02 10:42:56;;;;;;;3.33;1.80;;;;;;;16.72;40.54;99450.16;4958074;28;20370;-88
2022/04/02 10:45:22;;;;;;;2.95;1.50;;;;;;;16.73;40.45;99438.69;4948909;29;20069;-89
2022/04/02 10:48:10;;;;;;;4.40;1.75;;;;;;;16.72;40.61;99437.00;4941849;29;20493;-90
2022/04/02 10:50:38;;;;;;;6.72;2.72;;;;;;;16.71;40.48;99427.38;4941043;29;20038;-89
2022/04/02 10:53:05;;;;;;;3.92;1.75;;;;;;;16.72;40.49;99426.44;4941735;29;20417;-90
2022/04/02 10:55:31;;;;;;;4.55;2.22;;;;;;;16.72;40.32;99440.50;4938596;29;20085;-88
2022/04/02 10:57:59;;;;;;;6.55;3.08;;;;;;;16.73;40.38;99441.31;4940570;29;20046;-88
2022/04/02 11:00:29;;;;;;;8.07;3.35;;;;;;;16.73;40.25;99438.69;4941974;29;20031;-89
2022/04/02 11:03:05;;;;;;;8.90;3.92;;;;;;;16.74;40.60;99438.63;4944130;29;20058;-87
2022/04/02 11:05:35;;;;;;;;;;;;;;;16.78;40.29;99439.34;4943371;29;20027;-87
2022/04/02 11:08:09;;;;;;;9.30;4.78;;;;;;;16.80;40.43;99441.94;4931535;29;20004;-89
2022/04/02 11:10:35;;;;;;;8.95;4.90;;;;;;;16.78;40.30;99434.09;4931791;29;20094;-88
2022/04/02 11:13:04;;;;;;;10.77;5.72;;;;;;;16.79;40.29;99427.88;4945528;29;20091;-87
2022/04/02 11:15:36;;;;;;;15.05;7.30;;;;;;;16.80;40.14;99432.22;4928061;29;20047;-87
2022/04/02 11:18:03;;;;;;;14.80;9.02;;;;;;;16.78;40.38;99434.94;4943335;29;20046;-89
2022/04/02 11:20:31;;;;;;;16.50;9.98;;;;;;;16.80;40.31;99442.75;4940939;29;20122;-88
2022/04/02 11:23:20;;;;;;;18.63;10.73;;;;;;;16.80;40.32;99440.13;4939430;29;20023;-89
2022/04/02 11:25:54;;;;;;;20.98;12.20;;;;;;;16.82;40.17;99430.41;4937837;29;20027;-88
2022/04/02 11:28:22;;;;;;;21.60;13.85;;;;;;;16.81;40.31;99439.22;4944478;29;20031;-88
2022/04/02 11:30:49;;;;;;;23.27;15.45;;;;;;;16.82;40.26;99446.22;4941397;29;20028;-89
2022/04/02 11:33:24;;;;;;;29.20;17.52;;;;;;;16.83;40.21;99442.66;4959143;29;20096;-88
2022/04/02 11:35:55;;;;;;;28.70;18.20;;;;;;;16.82;40.35;99446.22;4946088;29;20082;-89
2022/04/02 11:38:21;;;;;;;28.90;19.63;;;;;;;16.83;40.09;99441.78;4943040;29;20027;-89
2022/04/02 11:41:16;;;;;;;30.40;20.20;;;;;;;16.85;40.34;99435.53;4947364;29;20050;-87
2022/04/02 11:43:44;;;;;;;34.78;22.13;;;;;;;16.85;39.97;99446.06;4944133;29;20034;-89
2022/04/02 11:46:17;;;;;;;35.33;23.02;;;;;;;16.83;40.00;99437.38;4948556;29;20079;-89
2022/04/02 11:48:52;;;;;;;32.75;22.83;;;;;;;16.84;40.02;99433.81;4933442;29;20099;-88
2022/04/02 11:51:23;;;;;;;32.67;22.17;;;;;;;16.82;40.08;99446.22;4937400;29;20031;-89
2022/04/02 11:53:49;;;;;;;36.95;24.20;;;;;;;16.84;40.12;99449.63;4943444;29;20051;-88
2022/04/02 11:56:32;;;;;;;38.22;25.55;;;;;;;16.83;40.15;99445.28;4942119;29;20023;-88
2022/04/02 12:02:39;;;;;;;39.72;26.40;;;;;;;16.83;40.12;99442.66;4958823;29;20108;-87
2022/04/02 12:05:07;;;;;;;33.72;24.25;;;;;;;16.83;39.93;99447.91;4940270;29;20059;-88
2022/04/02 12:07:44;;;;;;;36.33;25.27;;;;;;;16.84;40.36;99448.75;4940363;29;20031;-87
2022/04/02 12:10:18;;;;;;;38.70;27.48;;;;;;;16.84;40.05;99452.25;4940580;29;20118;-88
2022/04/02 12:12:48;;;;;;;36.53;24.20;;;;;;;16.84;39.95;99452.25;4940608;29;20528;-88
2022/04/02 12:15:15;;;;;;;39.50;26.40;;;;;;;16.84;40.17;99454.91;4957521;29;20035;-87
2022/04/02 12:17:47;;;;;;;39.75;27.13;;;;;;;16.86;40.09;99444.28;4940152;29;20023;-88
2022/04/02 12:20:34;;;;;;;37.60;26.75;;;;;;;16.85;39.97;99450.50;4939899;29;20047;-88
2022/04/02 12:23:17;;;;;;;35.80;25.80;;;;;;;16.86;40.21;99458.31;4930282;29;20035;-88
2022/04/02 12:26:04;;;;;;;38.72;26.20;;;;;;;16.86;39.98;99452.19;4939803;29;20520;-87
2022/04/02 12:28:33;;;;;;;38.58;26.17;;;;;;;16.87;40.06;99453.91;4940049;29;20054;-88
2022/04/02 12:31:07;;;;;;;37.40;28.30;;;;;;;16.87;40.03;99449.50;4939918;29;20027;-88
2022/04/02 12:33:33;;;;;;;39.00;26.83;;;;;;;16.87;39.94;99449.50;4958147;28;20106;-88
2022/04/02 12:36:08;;;;;;;35.72;25.92;;;;;;;16.87;39.87;99438.97;4940296;29;20069;-88
2022/04/02 12:38:36;;;;;;;37.50;24.87;;;;;;;16.88;39.78;99439.81;4940182;29;20024;-88
2022/04/02 12:41:04;;;;;;;37.72;24.73;;;;;;;16.89;39.79;99431.84;4939870;29;20070;-88